Marlin, Washington
Current Conditions -  °F | °C
As of 6:39 AM on Tuesday 21 Oct 2014 (Local Time) from KMWH Reporting Station
Moderate Fog Moderate Fog  
Wind Chill: 43°   Ceiling: 100
Heat Index: 43°   Visibility: 0.5mi
Dew Point: 43°   Wind: 3mph
Humidity: 100%   Direction: 130°SE
Pressure: 29.85"   Gusts: NA
Location:  47.32°N, 119.01°W
Report Text: KMWH 211339Z 13003KT 1/2SM R32R/4000VP6000FT FG VV001 06/06 A2985 RMK AO2 T00610061
Loading
Personal Weather Stations






























Interactive Weather Map
Tropical Storm Tracking
New forecast layout! Learn more

10-Day Weather Forecast

Advertisements
Track Severe Weather on mobile